Time;durP1;ratioP1;P1;durP2;ratioP2;P2;SDS_P1;SDS_P2;PMS_P1;PMS_P2;Temp;Humidity;BMP_temperature;BMP_pressure;BME280_temperature;BME280_humidity;BME280_pressure;Samples;Min_cycle;Max_cycle;Signal;HPM_P1;HPM_P2
2021/07/01 00:00:18;;;;;;;3.90;2.28;;;14.70;92.70;;;;;;5056277;28;20362;-78
2021/07/01 00:02:44;;;;;;;3.03;2.10;;;14.70;92.70;;;;;;5054564;28;20025;-78
2021/07/01 00:05:14;;;;;;;3.97;2.42;;;14.70;92.70;;;;;;5056110;28;20032;-77
2021/07/01 00:07:40;;;;;;;;;;;14.70;92.70;;;;;;5056610;28;20044;-77
2021/07/01 00:10:15;;;;;;;2.05;1.70;;;14.60;92.80;;;;;;5056186;28;20009;-77
2021/07/01 00:12:41;;;;;;;4.32;2.35;;;14.70;92.90;;;;;;5056240;28;20036;-77
2021/07/01 00:15:09;;;;;;;3.63;2.03;;;14.70;92.80;;;;;;5055810;28;20033;-77
2021/07/01 00:17:35;;;;;;;4.97;2.78;;;14.70;92.80;;;;;;5055761;28;20489;-78
2021/07/01 00:20:02;;;;;;;4.22;2.30;;;14.60;92.80;;;;;;5055842;28;20029;-78
2021/07/01 00:22:27;;;;;;;2.83;1.90;;;14.60;92.90;;;;;;5054743;28;20014;-78
2021/07/01 00:24:53;;;;;;;3.78;2.20;;;14.60;93.00;;;;;;5055800;28;20029;-78
2021/07/01 00:27:18;;;;;;;4.63;2.20;;;14.60;93.00;;;;;;5055701;28;20013;-78
2021/07/01 00:29:44;;;;;;;2.50;2.00;;;14.60;93.00;;;;;;5055776;28;20100;-78
2021/07/01 00:32:10;;;;;;;3.25;2.33;;;14.60;93.00;;;;;;5055218;28;20047;-77
2021/07/01 00:34:35;;;;;;;3.15;1.98;;;14.60;93.00;;;;;;5054103;28;20029;-78
2021/07/01 00:37:01;;;;;;;3.53;2.35;;;14.60;93.00;;;;;;5055578;28;20029;-76
2021/07/01 00:39:26;;;;;;;3.05;2.10;;;14.60;93.00;;;;;;5054200;28;20033;-77
2021/07/01 00:41:52;;;;;;;3.63;2.20;;;14.60;93.00;;;;;;5054036;28;20033;-77
2021/07/01 00:44:17;;;;;;;4.53;2.42;;;14.50;93.10;;;;;;5070965;28;20025;-78
2021/07/01 00:46:43;;;;;;;2.97;2.00;;;14.50;93.20;;;;;;5054989;28;20048;-78
2021/07/01 00:49:08;;;;;;;3.15;2.30;;;14.50;93.20;;;;;;5055514;28;20021;-78
2021/07/01 00:51:34;;;;;;;3.30;1.98;;;14.50;93.10;;;;;;5055333;28;20386;-77
2021/07/01 00:54:00;;;;;;;3.55;2.67;;;14.50;93.20;;;;;;5055434;28;20060;-77
2021/07/01 00:56:26;;;;;;;3.72;2.95;;;14.40;93.20;;;;;;5055303;28;20131;-78
2021/07/01 00:58:54;;;;;;;3.47;2.28;;;14.40;93.20;;;;;;5055342;28;20512;-78
2021/07/01 01:01:21;;;;;;;3.75;2.50;;;14.40;93.20;;;;;;5054713;28;20013;-78
2021/07/01 01:03:46;;;;;;;2.83;2.08;;;14.40;93.10;;;;;;5055217;28;20039;-78
2021/07/01 01:06:13;;;;;;;3.40;2.33;;;14.40;93.20;;;;;;5070378;28;20013;-78
2021/07/01 01:08:38;;;;;;;3.50;1.95;;;14.40;93.10;;;;;;5054985;28;20128;-78
2021/07/01 01:11:04;;;;;;;3.25;2.00;;;14.40;93.10;;;;;;5055241;28;20501;-78
2021/07/01 01:13:30;;;;;;;2.42;1.88;;;14.50;93.20;;;;;;5054738;28;20037;-79
2021/07/01 01:16:03;;;;;;;3.33;2.13;;;14.50;93.10;;;;;;5054406;28;20029;-79
2021/07/01 01:18:29;;;;;;;3.42;2.20;;;14.50;93.00;;;;;;5053591;28;20040;-78
2021/07/01 01:20:58;;;;;;;3.97;2.50;;;14.60;93.10;;;;;;5055060;28;20017;-78
2021/07/01 01:23:25;;;;;;;2.63;1.77;;;14.50;93.00;;;;;;5054736;28;20036;-79
2021/07/01 01:25:53;;;;;;;3.63;2.38;;;14.50;93.00;;;;;;5054734;28;20029;-79
2021/07/01 01:28:19;;;;;;;4.25;2.35;;;14.50;93.00;;;;;;5054773;28;20086;-77
2021/07/01 01:30:45;;;;;;;4.63;2.47;;;14.60;93.00;;;;;;5054172;28;20028;-78
2021/07/01 01:33:11;;;;;;;3.45;2.20;;;14.50;93.00;;;;;;5054523;28;20025;-78
2021/07/01 01:35:38;;;;;;;6.03;3.30;;;14.50;93.00;;;;;;5054533;28;20390;-76
2021/07/01 01:38:08;;;;;;;5.53;3.08;;;14.60;93.00;;;;;;5054598;28;20025;-76
2021/07/01 01:40:33;;;;;;;3.63;2.53;;;14.50;93.10;;;;;;5054571;28;20029;-78
2021/07/01 01:42:59;;;;;;;3.08;2.28;;;14.50;93.10;;;;;;5054316;28;20497;-79
2021/07/01 01:45:25;;;;;;;2.28;2.03;;;14.50;93.10;;;;;;5053281;28;20469;-78
2021/07/01 01:47:50;;;;;;;3.50;2.40;;;14.50;93.10;;;;;;5054222;28;20037;-76
2021/07/01 01:50:21;;;;;;;3.70;2.70;;;14.50;93.10;;;;;;5054209;28;20068;-76
2021/07/01 01:52:47;;;;;;;3.85;2.60;;;14.50;93.10;;;;;;5054320;28;20127;-77
2021/07/01 01:55:13;;;;;;;3.55;2.20;;;14.50;93.00;;;;;;5054088;28;20037;-77
2021/07/01 01:57:44;;;;;;;3.92;2.35;;;14.50;93.00;;;;;;5054020;28;20096;-77
2021/07/01 02:00:13;;;;;;;3.05;2.30;;;14.50;93.10;;;;;;5053584;28;20025;-77
2021/07/01 02:02:40;;;;;;;2.80;1.88;;;14.50;93.10;;;;;;5054131;28;20044;-77
2021/07/01 02:05:07;;;;;;;2.83;1.90;;;14.40;93.10;;;;;;5054052;28;20067;-77
2021/07/01 02:07:34;;;;;;;2.67;1.90;;;14.40;93.10;;;;;;5053807;28;20029;-77
2021/07/01 02:10:00;;;;;;;3.38;2.25;;;14.40;93.10;;;;;;5053929;28;20021;-77
2021/07/01 02:12:26;;;;;;;3.50;2.00;;;14.40;93.20;;;;;;5053517;28;20025;-77
2021/07/01 02:14:52;;;;;;;2.10;1.67;;;14.50;93.10;;;;;;5053781;28;20550;-76
2021/07/01 02:17:18;;;;;;;3.05;1.92;;;14.40;93.10;;;;;;5052623;28;20532;-77
2021/07/01 02:19:44;;;;;;;3.50;1.90;;;14.40;93.10;;;;;;5053549;28;20112;-77
2021/07/01 02:22:09;;;;;;;4.00;2.10;;;14.30;93.10;;;;;;5053717;28;20059;-77
2021/07/01 02:24:35;;;;;;;2.67;1.92;;;14.30;93.30;;;;;;5053668;28;20029;-78
2021/07/01 02:27:00;;;;;;;1.98;1.42;;;14.20;93.40;;;;;;5053190;28;20067;-77
2021/07/01 02:29:28;;;;;;;2.42;1.73;;;14.20;93.40;;;;;;5053538;28;20032;-78
2021/07/01 02:31:53;;;;;;;3.03;2.10;;;14.20;93.30;;;;;;5053555;28;20132;-78
2021/07/01 02:34:19;;;;;;;2.97;1.70;;;14.30;93.30;;;;;;5053307;28;20116;-78
2021/07/01 02:36:44;;;;;;;2.35;1.52;;;14.30;93.20;;;;;;5053413;28;20463;-78
2021/07/01 02:39:10;;;;;;;2.40;1.58;;;14.20;93.30;;;;;;5052112;28;20416;-78
2021/07/01 02:41:36;;;;;;;1.92;1.30;;;14.20;93.40;;;;;;5051433;28;20423;-76
2021/07/01 02:44:02;;;;;;;2.25;1.67;;;14.20;93.40;;;;;;5053170;28;20494;-77
2021/07/01 02:46:27;;;;;;;3.28;1.85;;;14.20;93.40;;;;;;5053325;28;20028;-78
2021/07/01 02:48:53;;;;;;;3.75;2.05;;;14.10;93.40;;;;;;5053157;28;20138;-77
2021/07/01 02:51:18;;;;;;;1.50;1.38;;;14.10;93.50;;;;;;5052084;28;20021;-77
2021/07/01 02:53:44;;;;;;;2.30;1.70;;;14.00;93.60;;;;;;5053186;28;20025;-77
2021/07/01 02:56:09;;;;;;;2.42;1.80;;;14.00;93.60;;;;;;5052701;28;20466;-78
2021/07/01 02:58:35;;;;;;;3.70;1.92;;;13.90;93.60;;;;;;5053193;28;20021;-78
2021/07/01 03:01:01;;;;;;;2.00;1.80;;;13.90;93.70;;;;;;5053119;28;20031;-77
2021/07/01 03:03:26;;;;;;;4.35;2.20;;;13.90;93.70;;;;;;5053033;28;20027;-78
2021/07/01 03:05:53;;;;;;;4.80;2.65;;;13.90;93.70;;;;;;5052965;28;20428;-77
2021/07/01 03:08:19;;;;;;;2.80;2.00;;;13.90;93.70;;;;;;5053078;28;20021;-77
2021/07/01 03:10:44;;;;;;;2.35;1.70;;;13.90;93.80;;;;;;5052600;28;20108;-77
2021/07/01 03:13:10;;;;;;;2.28;1.73;;;13.90;93.80;;;;;;5053020;28;20102;-78
2021/07/01 03:15:37;;;;;;;2.45;1.70;;;13.90;93.70;;;;;;5053113;28;20025;-78
2021/07/01 03:18:04;;;;;;;3.00;1.88;;;13.90;93.80;;;;;;5052850;28;20458;-77
2021/07/01 03:20:30;;;;;;;2.75;1.98;;;13.90;93.70;;;;;;5068392;28;20040;-78
2021/07/01 03:22:56;;;;;;;2.30;1.80;;;13.80;93.80;;;;;;5053027;28;20047;-78
2021/07/01 03:25:21;;;;;;;2.70;2.00;;;13.80;94.10;;;;;;5052450;28;20021;-78
2021/07/01 03:27:47;;;;;;;3.95;1.98;;;13.90;93.70;;;;;;5052941;28;20071;-78
2021/07/01 03:30:13;;;;;;;3.67;1.80;;;13.90;93.70;;;;;;5052760;28;20057;-77
2021/07/01 03:32:39;;;;;;;3.85;2.15;;;13.80;93.70;;;;;;5051471;28;20432;-78
2021/07/01 03:35:05;;;;;;;2.70;2.15;;;13.80;93.80;;;;;;5052695;28;20037;-76
2021/07/01 03:37:30;;;;;;;4.47;2.03;;;13.80;93.80;;;;;;5051588;28;20014;-78
2021/07/01 03:39:56;;;;;;;2.75;1.80;;;13.80;93.80;;;;;;5052136;28;20040;-78
2021/07/01 03:42:22;;;;;;;2.65;1.75;;;13.80;93.80;;;;;;5052572;28;20503;-78
2021/07/01 03:44:47;;;;;;;2.47;1.92;;;13.90;93.80;;;;;;5052744;28;20462;-78
2021/07/01 03:47:13;;;;;;;3.65;2.08;;;13.90;93.70;;;;;;5052556;28;20056;-77
2021/07/01 03:49:39;;;;;;;2.45;1.60;;;13.90;93.70;;;;;;5052737;28;20025;-80
2021/07/01 03:52:05;;;;;;;2.00;1.50;;;13.90;93.70;;;;;;5052515;28;20017;-78
2021/07/01 03:54:31;;;;;;;2.13;1.48;;;13.90;93.70;;;;;;5052110;28;20063;-78
2021/07/01 03:56:57;;;;;;;3.55;1.98;;;14.00;93.70;;;;;;5052522;28;20118;-78
2021/07/01 03:59:23;;;;;;;3.13;1.70;;;13.90;93.70;;;;;;5052614;28;20385;-78
2021/07/01 04:01:48;;;;;;;2.15;1.73;;;13.90;93.70;;;;;;5052477;28;20017;-79
2021/07/01 04:04:14;;;;;;;2.03;1.58;;;13.90;93.70;;;;;;5052388;28;20029;-78
2021/07/01 04:06:39;;;;;;;2.05;1.40;;;13.90;93.70;;;;;;5052504;28;20017;-78
2021/07/01 04:09:06;;;;;;;2.75;1.63;;;13.90;93.70;;;;;;5054424;28;20052;-78
2021/07/01 04:11:32;;;;;;;2.30;1.48;;;13.90;93.70;;;;;;5056291;28;20029;-78
2021/07/01 04:13:59;;;;;;;2.30;1.48;;;13.90;93.70;;;;;;5056042;28;20044;-78
2021/07/01 04:16:24;;;;;;;3.53;1.55;;;13.90;93.70;;;;;;5056022;28;20450;-79
2021/07/01 04:18:50;;;;;;;3.22;1.73;;;13.90;93.70;;;;;;5056095;28;20051;-78
2021/07/01 04:21:15;;;;;;;2.13;1.65;;;13.90;93.70;;;;;;5071426;28;20030;-78
2021/07/01 04:23:41;;;;;;;2.55;1.90;;;14.00;93.70;;;;;;5055583;28;20025;-78
2021/07/01 04:26:07;;;;;;;1.83;1.63;;;14.00;93.70;;;;;;5055890;28;20029;-77
2021/07/01 04:28:32;;;;;;;3.58;1.98;;;14.00;93.70;;;;;;5055769;28;20028;-78
2021/07/01 04:30:59;;;;;;;3.97;2.33;;;14.00;93.70;;;;;;5055710;28;20036;-78
2021/07/01 04:33:25;;;;;;;2.78;1.95;;;14.00;93.70;;;;;;5055608;28;20028;-78
2021/07/01 04:35:51;;;;;;;3.28;2.08;;;14.00;93.70;;;;;;5055799;28;20033;-78
2021/07/01 04:38:18;;;;;;;2.20;1.73;;;14.00;93.80;;;;;;5055270;28;20032;-78
2021/07/01 04:40:44;;;;;;;2.25;1.80;;;14.00;93.80;;;;;;5055538;28;20418;-79
2021/07/01 04:43:10;;;;;;;2.95;1.80;;;14.00;93.80;;;;;;5055372;28;20064;-79
2021/07/01 04:45:35;;;;;;;2.78;1.52;;;14.00;93.70;;;;;;5055427;28;20545;-78
2021/07/01 04:48:02;;;;;;;5.45;2.35;;;14.00;93.70;;;;;;5055443;28;20021;-80
2021/07/01 04:50:27;;;;;;;3.15;2.33;;;14.00;93.70;;;;;;5054126;28;20465;-77
2021/07/01 04:52:53;;;;;;;3.35;1.92;;;14.00;93.70;;;;;;5054945;28;20045;-79
2021/07/01 04:55:18;;;;;;;2.40;1.60;;;14.00;93.80;;;;;;5053869;28;20040;-78
2021/07/01 04:57:44;;;;;;;2.45;1.50;;;14.00;93.70;;;;;;5055316;28;20110;-78
2021/07/01 05:00:10;;;;;;;2.70;1.83;;;14.00;93.80;;;;;;5055187;28;20052;-78
2021/07/01 05:02:35;;;;;;;2.35;1.67;;;14.00;93.70;;;;;;5055130;28;20013;-77
2021/07/01 05:05:02;;;;;;;2.40;1.95;;;14.00;93.70;;;;;;5053919;28;20032;-77
2021/07/01 05:07:27;;;;;;;4.55;2.25;;;14.00;93.70;;;;;;5054603;28;20044;-77
2021/07/01 05:09:53;;;;;;;4.05;2.58;;;14.00;94.00;;;;;;5053910;28;20063;-77
2021/07/01 05:12:18;;;;;;;4.35;2.10;;;14.00;93.70;;;;;;5054993;28;20049;-77
2021/07/01 05:14:44;;;;;;;2.80;1.95;;;14.00;93.70;;;;;;5054783;28;20094;-77
2021/07/01 05:17:09;;;;;;;5.07;2.53;;;14.00;93.80;;;;;;5054851;28;20479;-77
2021/07/01 05:19:35;;;;;;;3.78;2.08;;;14.00;93.70;;;;;;5053914;28;20032;-77
2021/07/01 05:22:00;;;;;;;2.85;1.90;;;14.00;93.70;;;;;;5054363;28;20017;-78
2021/07/01 05:24:26;;;;;;;4.88;2.65;;;14.00;93.70;;;;;;5054714;28;20482;-78
2021/07/01 05:26:52;;;;;;;4.15;2.53;;;14.00;93.70;;;;;;5054710;28;20035;-78
2021/07/01 05:29:17;;;;;;;3.55;2.20;;;14.00;93.70;;;;;;5054533;28;20029;-77
2021/07/01 05:31:43;;;;;;;2.65;2.00;;;14.00;93.70;;;;;;5054703;28;20017;-78
2021/07/01 05:34:08;;;;;;;2.80;1.98;;;14.00;93.80;;;;;;5054593;28;20033;-76
2021/07/01 05:36:34;;;;;;;4.15;2.20;;;14.00;93.80;;;;;;5053956;28;20028;-75
2021/07/01 05:38:59;;;;;;;3.47;2.20;;;14.10;93.80;;;;;;5054673;28;20025;-78
2021/07/01 05:41:25;;;;;;;4.38;2.30;;;14.10;93.70;;;;;;5054159;28;20555;-77
2021/07/01 05:43:50;;;;;;;3.20;2.22;;;14.10;93.70;;;;;;5054364;28;20044;-79
2021/07/01 05:46:16;;;;;;;3.35;1.95;;;14.10;93.80;;;;;;5054439;28;20118;-78
2021/07/01 05:48:42;;;;;;;3.08;2.22;;;14.20;93.70;;;;;;5054264;28;20092;-78
2021/07/01 05:51:08;;;;;;;2.53;1.70;;;14.20;93.70;;;;;;5053877;28;20020;-79
2021/07/01 05:53:57;;;;;;;3.80;1.92;;;14.20;93.70;;;;;;5069298;28;20105;-79
2021/07/01 05:56:22;;;;;;;3.72;1.75;;;14.20;93.70;;;;;;5054078;28;20032;-79
2021/07/01 05:58:48;;;;;;;4.07;2.28;;;14.20;93.70;;;;;;5054134;28;20017;-79
2021/07/01 06:01:13;;;;;;;2.63;1.80;;;14.20;93.70;;;;;;5054023;28;20070;-78
2021/07/01 06:03:39;;;;;;;3.20;2.28;;;14.20;93.70;;;;;;5053949;28;20477;-78
2021/07/01 06:06:12;;;;;;;3.03;1.95;;;14.10;93.70;;;;;;5052169;28;20382;-76
2021/07/01 06:08:39;;;;;;;4.13;2.33;;;14.20;93.70;;;;;;5044402;28;20021;-77
2021/07/01 06:11:06;;;;;;;4.05;2.20;;;14.20;93.70;;;;;;5053648;28;20370;-79
2021/07/01 06:13:42;;;;;;;2.40;1.73;;;14.10;93.70;;;;;;5053701;28;20025;-78
2021/07/01 06:16:13;;;;;;;3.33;1.70;;;14.20;93.70;;;;;;5053636;28;20040;-79
2021/07/01 06:18:42;;;;;;;3.67;3.30;;;14.20;93.80;;;;;;5053618;28;20045;-78
2021/07/01 06:21:08;;;;;;;3.00;2.05;;;14.20;93.70;;;;;;5052895;28;20036;-78
2021/07/01 06:23:37;;;;;;;2.42;1.65;;;14.20;93.70;;;;;;5053526;28;20021;-77
2021/07/01 06:26:03;;;;;;;4.68;2.63;;;14.20;93.80;;;;;;5053317;28;20017;-76
2021/07/01 06:28:30;;;;;;;7.55;3.03;;;14.20;93.80;;;;;;5053358;28;20079;-77
2021/07/01 06:30:55;;;;;;;3.30;2.00;;;14.20;93.90;;;;;;5053199;28;20044;-76
2021/07/01 06:33:22;;;;;;;2.40;1.90;;;14.20;93.80;;;;;;5052834;28;20478;-77
2021/07/01 06:35:52;;;;;;;2.63;1.75;;;14.30;93.80;;;;;;5053103;28;20024;-76
2021/07/01 06:38:22;;;;;;;3.70;1.95;;;14.40;93.70;;;;;;5053382;28;20021;-76
2021/07/01 06:40:49;;;;;;;2.78;1.65;;;14.40;93.70;;;;;;5053341;28;20075;-76
2021/07/01 06:43:18;;;;;;;2.88;1.60;;;14.50;93.60;;;;;;5053173;28;20548;-77
2021/07/01 06:45:44;;;;;;;4.53;2.13;;;14.50;93.60;;;;;;5053094;28;20033;-76
2021/07/01 06:48:10;;;;;;;4.32;2.60;;;14.50;93.60;;;;;;5034779;28;20030;-78
2021/07/01 06:50:38;;;;;;;6.60;3.28;;;14.50;93.60;;;;;;5035093;28;20377;-77
2021/07/01 06:53:04;;;;;;;4.22;2.10;;;14.60;93.60;;;;;;5052834;28;20013;-77
2021/07/01 06:55:30;;;;;;;4.15;2.55;;;14.60;93.60;;;;;;5053018;28;20063;-77
2021/07/01 06:57:56;;;;;;;3.53;1.98;;;14.60;93.60;;;;;;5052898;28;20036;-77
2021/07/01 07:00:23;;;;;;;2.85;1.95;;;14.60;93.60;;;;;;5052966;28;20527;-77
2021/07/01 07:02:48;;;;;;;2.53;1.77;;;14.60;93.60;;;;;;5052247;28;20055;-76
2021/07/01 07:05:16;;;;;;;2.83;1.95;;;14.70;93.60;;;;;;5052852;28;20134;-78
2021/07/01 07:07:43;;;;;;;2.42;2.00;;;14.60;93.50;;;;;;5052891;28;20035;-77
2021/07/01 07:10:11;;;;;;;3.70;2.38;;;14.70;93.50;;;;;;5052643;28;20056;-78
2021/07/01 07:12:41;;;;;;;3.15;2.15;;;14.80;93.50;;;;;;5035015;28;20025;-77
2021/07/01 07:15:10;;;;;;;5.10;2.88;;;14.80;93.40;;;;;;5052835;28;20071;-78
2021/07/01 07:17:38;;;;;;;4.25;2.55;;;14.80;93.70;;;;;;5052195;28;20033;-78
2021/07/01 07:20:04;;;;;;;3.75;2.15;;;14.80;93.40;;;;;;5052755;28;20533;-79
2021/07/01 07:22:42;;;;;;;4.72;2.65;;;14.80;93.50;;;;;;5049682;28;20025;-77
2021/07/01 07:25:09;;;;;;;5.53;3.47;;;14.90;93.40;;;;;;5045211;28;20025;-76
2021/07/01 07:27:38;;;;;;;4.22;2.55;;;14.90;93.40;;;;;;5051944;28;20036;-76
2021/07/01 07:30:05;;;;;;;3.08;2.38;;;14.90;93.40;;;;;;5052717;28;20497;-75
2021/07/01 07:32:32;;;;;;;3.67;2.55;;;14.90;93.40;;;;;;5052304;28;20032;-77
2021/07/01 07:34:58;;;;;;;4.75;2.35;;;14.90;93.40;;;;;;5052640;28;20051;-76
2021/07/01 07:37:24;;;;;;;2.42;1.75;;;14.90;93.40;;;;;;5034999;28;20021;-76
2021/07/01 07:39:50;;;;;;;3.33;2.20;;;14.90;93.40;;;;;;5052631;28;20147;-76
2021/07/01 07:42:17;;;;;;;3.53;2.10;;;14.90;93.40;;;;;;5052446;28;20485;-75
2021/07/01 07:44:44;;;;;;;4.20;2.20;;;15.00;93.40;;;;;;5055930;28;20021;-75
2021/07/01 07:47:13;;;;;;;3.35;1.92;;;15.00;93.40;;;;;;5056012;28;20028;-76
2021/07/01 07:49:39;;;;;;;;;;;15.00;93.60;;;;;;5039078;28;20021;-76
2021/07/01 07:52:09;;;;;;;3.83;2.28;;;15.00;93.30;;;;;;5056416;28;19912;-76
2021/07/01 07:54:44;;;;;;;3.63;2.25;;;15.00;93.40;;;;;;5056410;28;20078;-78
2021/07/01 07:57:10;;;;;;;3.13;2.28;;;15.00;93.40;;;;;;5056215;28;20092;-77
2021/07/01 07:59:38;;;;;;;4.65;2.75;;;15.10;93.40;;;;;;5056316;28;20028;-78
2021/07/01 08:02:06;;;;;;;3.22;2.15;;;15.10;93.30;;;;;;5037933;28;20075;-77
2021/07/01 08:04:35;;;;;;;3.63;2.22;;;15.20;93.30;;;;;;5038465;28;20112;-77
2021/07/01 08:07:02;;;;;;;4.47;2.70;;;15.20;93.20;;;;;;5056228;28;20044;-77
2021/07/01 08:09:29;;;;;;;3.55;2.10;;;15.20;93.20;;;;;;5056009;28;20017;-77
2021/07/01 08:11:57;;;;;;;2.90;2.00;;;15.20;93.20;;;;;;5056005;28;20078;-77
2021/07/01 08:14:23;;;;;;;5.25;2.95;;;15.20;93.20;;;;;;5056086;28;20112;-73
2021/07/01 08:16:49;;;;;;;3.88;2.08;;;15.20;93.10;;;;;;5055599;28;20017;-77
2021/07/01 08:19:15;;;;;;;4.43;2.38;;;15.20;93.20;;;;;;5055864;28;20099;-77
2021/07/01 08:21:41;;;;;;;3.38;2.22;;;15.20;93.30;;;;;;5055996;28;20454;-77
2021/07/01 08:24:10;;;;;;;2.65;2.00;;;15.20;93.20;;;;;;5055741;28;20492;-78
2021/07/01 08:26:36;;;;;;;3.17;2.10;;;15.20;93.20;;;;;;5055920;28;20036;-76
2021/07/01 08:29:02;;;;;;;2.35;1.80;;;15.20;93.10;;;;;;5055670;28;20455;-77
2021/07/01 08:31:31;;;;;;;5.90;4.45;;;15.20;93.40;;;;;;5055477;28;20097;-79
2021/07/01 08:33:58;;;;;;;4.13;2.73;;;15.30;93.20;;;;;;5055670;28;20040;-76
2021/07/01 08:36:25;;;;;;;5.13;3.15;;;15.20;93.10;;;;;;5037796;28;20025;-78
2021/07/01 08:38:55;;;;;;;3.92;2.53;;;15.30;93.20;;;;;;5055392;28;20033;-77
2021/07/01 08:41:23;;;;;;;4.13;3.17;;;15.30;93.20;;;;;;5055607;28;20049;-77
2021/07/01 08:43:53;;;;;;;2.70;1.90;;;15.30;93.10;;;;;;5055306;28;20040;-78
2021/07/01 08:46:25;;;;;;;3.40;1.92;;;15.40;93.10;;;;;;5055532;28;20032;-77
2021/07/01 08:48:58;;;;;;;2.47;1.88;;;15.40;93.10;;;;;;5055339;28;20029;-76
2021/07/01 08:51:39;;;;;;;3.50;2.55;;;15.50;93.10;;;;;;5055342;28;20047;-78
2021/07/01 08:54:25;;;;;;;5.00;3.15;;;15.50;93.00;;;;;;5037329;28;20397;-77
2021/07/01 08:56:53;;;;;;;2.65;1.70;;;15.50;93.00;;;;;;5055296;28;20488;-76
2021/07/01 08:59:20;;;;;;;3.47;2.20;;;15.50;93.20;;;;;;5054694;28;20029;-76
2021/07/01 09:02:03;;;;;;;2.97;1.80;;;15.50;93.10;;;;;;5055107;28;20133;-76
2021/07/01 09:04:33;;;;;;;3.83;2.28;;;15.60;93.00;;;;;;5055157;28;20040;-76
2021/07/01 09:07:00;;;;;;;;;;;15.60;93.00;;;;;;5055474;28;20035;-75
2021/07/01 09:09:31;;;;;;;4.97;2.60;;;15.60;93.00;;;;;;5055081;28;19904;-75
2021/07/01 09:12:06;;;;;;;4.60;2.45;;;15.60;93.00;;;;;;5055092;28;20124;-76
2021/07/01 09:14:32;;;;;;;3.67;2.50;;;15.50;93.00;;;;;;5054297;28;20033;-76
2021/07/01 09:17:06;;;;;;;4.25;2.75;;;15.50;93.00;;;;;;5054889;28;20036;-77
2021/07/01 09:19:32;;;;;;;2.28;1.63;;;15.50;93.00;;;;;;5054942;28;20082;-76
2021/07/01 09:22:01;;;;;;;4.20;2.28;;;15.50;93.10;;;;;;5054808;28;20021;-76
2021/07/01 09:24:33;;;;;;;4.25;2.67;;;15.50;93.00;;;;;;5054497;28;20024;-76
2021/07/01 09:26:59;;;;;;;3.28;1.80;;;15.50;93.00;;;;;;5054933;28;20576;-76
2021/07/01 09:29:26;;;;;;;3.63;2.35;;;15.60;93.00;;;;;;5054288;28;20029;-75
2021/07/01 09:31:54;;;;;;;5.80;3.78;;;15.60;93.00;;;;;;5054654;28;20040;-75
2021/07/01 09:34:20;;;;;;;5.60;3.17;;;15.50;93.00;;;;;;5054498;28;20028;-74
2021/07/01 09:36:46;;;;;;;3.60;2.33;;;15.50;93.00;;;;;;5054512;28;20032;-75
2021/07/01 09:39:11;;;;;;;5.53;2.30;;;15.40;93.10;;;;;;5054433;28;20043;-75
2021/07/01 09:41:37;;;;;;;5.20;2.58;;;15.40;93.10;;;;;;5054202;28;20021;-74
2021/07/01 09:44:04;;;;;;;5.60;2.92;;;15.40;93.10;;;;;;5053936;28;20108;-75
2021/07/01 09:46:32;;;;;;;4.88;2.67;;;15.40;93.20;;;;;;5054165;28;20040;-74
2021/07/01 09:49:00;;;;;;;4.75;2.42;;;15.30;93.20;;;;;;5054475;28;20111;-75
2021/07/01 09:51:29;;;;;;;3.83;2.33;;;15.30;93.20;;;;;;5054186;28;20013;-74
2021/07/01 09:53:55;;;;;;;4.07;2.55;;;15.30;93.30;;;;;;5054194;28;20033;-75
2021/07/01 09:56:37;;;;;;;2.90;2.05;;;15.20;93.30;;;;;;5053604;28;20377;-76
2021/07/01 09:59:10;;;;;;;2.75;1.77;;;15.20;93.30;;;;;;5054241;28;20078;-75
2021/07/01 10:01:38;;;;;;;3.50;2.15;;;15.20;93.40;;;;;;5054117;28;20032;-75
2021/07/01 10:04:05;;;;;;;3.67;1.98;;;15.30;93.40;;;;;;5035960;28;20017;-75
2021/07/01 10:06:31;;;;;;;4.35;2.22;;;15.30;93.40;;;;;;5053350;28;20021;-74
2021/07/01 10:08:57;;;;;;;3.90;2.20;;;15.30;93.40;;;;;;5054123;28;20063;-74
2021/07/01 10:11:42;;;;;;;4.72;1.92;;;15.20;93.40;;;;;;5053350;28;20476;-74
2021/07/01 10:14:14;;;;;;;3.22;1.85;;;15.30;93.40;;;;;;5053548;28;20029;-74
2021/07/01 10:16:40;;;;;;;3.17;1.95;;;15.30;93.40;;;;;;5053737;28;20025;-75
2021/07/01 10:19:10;;;;;;;5.25;2.22;;;15.40;93.30;;;;;;5053700;28;20093;-75
2021/07/01 10:21:37;;;;;;;4.32;2.45;;;15.40;93.30;;;;;;5053478;28;20017;-73
2021/07/01 10:24:16;;;;;;;4.20;2.47;;;15.40;93.30;;;;;;5053655;28;20469;-76
2021/07/01 10:26:48;;;;;;;4.40;2.67;;;15.50;93.20;;;;;;5053061;28;20082;-75
2021/07/01 10:29:15;;;;;;;2.42;1.70;;;15.50;93.10;;;;;;5053569;28;20075;-75
2021/07/01 10:31:56;;;;;;;2.15;1.75;;;15.60;93.20;;;;;;5053451;28;20020;-75
2021/07/01 10:34:26;;;;;;;2.95;1.73;;;15.70;93.10;;;;;;5053390;28;20040;-75
2021/07/01 10:37:12;;;;;;;1.90;1.55;;;15.70;93.10;;;;;;5053613;28;20021;-74
2021/07/01 10:39:39;;;;;;;2.47;1.65;;;15.80;93.00;;;;;;5035427;28;20086;-74
2021/07/01 10:42:05;;;;;;;4.45;1.83;;;15.70;93.10;;;;;;5052686;28;20048;-74
2021/07/01 10:44:31;;;;;;;2.28;1.70;;;15.70;93.10;;;;;;5053339;28;20021;-74
2021/07/01 10:46:57;;;;;;;2.63;1.63;;;15.70;93.20;;;;;;5053025;28;20060;-74
2021/07/01 10:49:35;;;;;;;2.40;1.65;;;15.70;93.20;;;;;;5053201;28;20096;-73
2021/07/01 10:52:03;;;;;;;3.03;2.47;;;15.70;93.10;;;;;;5053149;28;20111;-74
2021/07/01 10:54:29;;;;;;;2.97;2.40;;;15.70;93.30;;;;;;5052570;28;20043;-74
2021/07/01 10:57:06;;;;;;;3.58;1.95;;;15.70;93.20;;;;;;5053018;28;20106;-74
2021/07/01 10:59:50;;;;;;;3.38;2.00;;;15.70;93.30;;;;;;5035310;28;20022;-75
2021/07/01 11:02:23;;;;;;;3.80;2.90;;;15.80;93.10;;;;;;5053167;28;20025;-74
2021/07/01 11:04:50;;;;;;;3.47;2.00;;;15.90;93.20;;;;;;5053698;28;20041;-75
2021/07/01 11:07:18;;;;;;;2.42;1.77;;;15.90;93.10;;;;;;5052930;28;20044;-75
2021/07/01 11:09:46;;;;;;;3.03;1.77;;;16.00;93.10;;;;;;5052540;28;20021;-76
2021/07/01 11:12:12;;;;;;;9.95;2.78;;;16.00;93.00;;;;;;5052798;28;20021;-75
2021/07/01 11:14:44;;;;;;;2.85;1.92;;;16.10;93.00;;;;;;5034784;28;20055;-76
2021/07/01 11:17:10;;;;;;;4.35;2.30;;;16.10;93.00;;;;;;5052949;28;20096;-75
2021/07/01 11:19:40;;;;;;;4.35;2.17;;;16.00;93.00;;;;;;5056361;28;20074;-74
2021/07/01 11:22:06;;;;;;;4.55;2.42;;;16.00;93.10;;;;;;5057086;28;20104;-75
2021/07/01 11:24:31;;;;;;;2.85;2.00;;;16.00;93.10;;;;;;5056781;28;20485;-75
2021/07/01 11:26:59;;;;;;;3.08;2.05;;;16.00;93.10;;;;;;5038975;28;20053;-75
2021/07/01 11:29:40;;;;;;;3.63;2.30;;;16.10;93.00;;;;;;5053626;28;20020;-75
2021/07/01 11:32:20;;;;;;;3.00;2.05;;;16.10;93.00;;;;;;5056137;28;20055;-74
2021/07/01 11:34:49;;;;;;;3.65;1.85;;;16.20;93.00;;;;;;5056263;28;20036;-75
2021/07/01 11:37:16;;;;;;;4.13;2.63;;;16.20;93.00;;;;;;5054004;28;20021;-75
2021/07/01 11:39:42;;;;;;;3.95;2.15;;;16.30;92.90;;;;;;5055738;28;20087;-75
2021/07/01 11:42:08;;;;;;;2.90;2.03;;;16.40;92.80;;;;;;5056130;28;20049;-74
2021/07/01 11:44:36;;;;;;;2.58;1.90;;;16.40;92.80;;;;;;5055984;28;20059;-74
2021/07/01 11:47:03;;;;;;;3.10;1.88;;;16.50;92.80;;;;;;5054610;28;20045;-73
2021/07/01 11:49:31;;;;;;;2.95;2.00;;;16.60;92.80;;;;;;5056482;28;20067;-74
2021/07/01 11:51:58;;;;;;;4.85;2.67;;;16.60;92.60;;;;;;5056527;28;20059;-75
2021/07/01 11:54:25;;;;;;;2.97;2.03;;;16.60;92.60;;;;;;5055711;28;20033;-75
2021/07/01 11:56:55;;;;;;;3.83;2.00;;;16.60;92.60;;;;;;5055917;28;20096;-75
2021/07/01 11:59:26;;;;;;;2.30;1.65;;;16.60;92.60;;;;;;5056245;28;20032;-74
2021/07/01 12:01:52;;;;;;;3.97;2.05;;;16.60;92.60;;;;;;5056209;28;20013;-75
2021/07/01 12:04:18;;;;;;;3.30;1.80;;;16.60;92.50;;;;;;5056163;28;20025;-75
2021/07/01 12:07:10;;;;;;;4.43;2.67;;;16.60;92.60;;;;;;5055617;28;20039;-75
2021/07/01 12:09:43;;;;;;;4.45;2.63;;;16.70;92.60;;;;;;5056076;28;20052;-78
2021/07/01 12:12:10;;;;;;;3.55;2.17;;;16.80;92.50;;;;;;5055959;28;20029;-78
2021/07/01 12:14:40;;;;;;;4.55;2.15;;;16.80;92.50;;;;;;5055749;28;20159;-79
2021/07/01 12:17:07;;;;;;;2.78;2.00;;;16.80;92.40;;;;;;5056081;28;20043;-77
2021/07/01 12:19:47;;;;;;;3.25;2.33;;;16.80;92.40;;;;;;5056196;28;20462;-78
2021/07/01 12:22:42;;;;;;;3.17;2.35;;;16.90;92.40;;;;;;5055288;28;20078;-78
2021/07/01 12:25:18;;;;;;;2.70;1.70;;;16.90;92.40;;;;;;5037703;28;20033;-78
2021/07/01 12:27:43;;;;;;;3.55;2.17;;;16.80;92.40;;;;;;5055749;28;20459;-78
2021/07/01 12:30:10;;;;;;;2.40;1.83;;;16.80;92.50;;;;;;5055124;28;20078;-78
2021/07/01 12:32:35;;;;;;;2.67;2.03;;;16.90;92.40;;;;;;5037498;28;20017;-78
2021/07/01 12:35:40;;;;;;;5.90;1.73;;;17.10;92.40;;;;;;5055430;28;20086;-77
2021/07/01 12:38:10;;;;;;;2.55;1.60;;;17.40;92.20;;;;;;5055040;28;20489;-78
2021/07/01 12:40:35;;;;;;;3.40;2.28;;;17.60;92.00;;;;;;5037500;28;20482;-78
2021/07/01 12:43:01;;;;;;;3.20;2.17;;;17.80;91.80;;;;;;5055215;28;20076;-79
2021/07/01 12:45:32;;;;;;;4.22;2.40;;;17.90;91.60;;;;;;5055193;28;20029;-77
2021/07/01 12:47:58;;;;;;;3.25;2.45;;;18.00;91.70;;;;;;5055239;28;20102;-78
2021/07/01 12:50:28;;;;;;;2.53;1.70;;;17.80;91.80;;;;;;5054991;28;20115;-76